Airport View

Enter AWOS ICAO identifier for current METAR.

ex. KFNL

KJFX 171230Z AUTO 7SM CLR M03/M03 A3009 RMK AO2

17 Nov 2019 12:33

Frequency: 119.225

Phone: 205-295-5539

Other Area AWOS: K1M4 - KCMD - KBHM - KEKY

TAF KBHM 171120Z 1712/1812 21004KT P6SM SCT035 SCT250 FM180400 00000KT P6SM SKC